createdAt,value
2023-05-10T00:01:24.831Z,91.28
2023-05-10T00:03:26.803Z,91.04
2023-05-10T00:05:28.625Z,90.90
2023-05-10T00:07:30.300Z,91.08
2023-05-10T00:09:31.822Z,90.84
2023-05-10T00:11:33.572Z,91.28
2023-05-10T00:13:35.357Z,91.35
2023-05-10T00:15:36.906Z,91.30
2023-05-10T00:17:38.465Z,91.80
2023-05-10T00:19:39.963Z,92.01
2023-05-10T00:21:41.599Z,91.99
2023-05-10T00:23:43.183Z,91.10
2023-05-10T00:25:44.721Z,91.84
2023-05-10T00:27:46.246Z,91.47
2023-05-10T00:29:47.817Z,92.53
2023-05-10T00:31:49.351Z,93.11
2023-05-10T00:33:50.956Z,94.24
2023-05-10T00:35:52.487Z,94.35
2023-05-10T00:37:54.017Z,92.26
2023-05-10T00:39:56.060Z,92.22
2023-05-10T00:41:57.951Z,91.24
2023-05-10T00:43:59.629Z,92.34
2023-05-10T00:46:01.771Z,92.68
2023-05-10T00:48:05.099Z,93.08
2023-05-10T00:50:07.481Z,93.75
2023-05-10T00:52:09.552Z,94.12
2023-05-10T00:54:13.285Z,95.46
2023-05-10T00:56:15.611Z,95.40
2023-05-10T00:58:17.683Z,96.44
2023-05-10T01:00:19.616Z,96.08
2023-05-10T01:02:21.268Z,96.27
2023-05-10T01:04:26.377Z,95.31
2023-05-10T01:06:28.928Z,95.52
2023-05-10T01:08:30.513Z,96.83
2023-05-10T01:10:32.772Z,96.57
2023-05-10T01:12:39.845Z,96.67
2023-05-10T01:14:41.892Z,96.90
2023-05-10T01:16:45.520Z,96.32
2023-05-10T01:18:48.914Z,96.95
2023-05-10T01:21:04.900Z,96.18
2023-05-10T01:23:43.396Z,96.47
2023-05-10T01:25:59.338Z,97.56
2023-05-10T01:28:35.398Z,97.00
2023-05-10T01:30:56.412Z,97.90
2023-05-10T01:33:12.530Z,97.82
2023-05-10T01:35:18.849Z,98.69
2023-05-10T01:37:39.708Z,99.17
2023-05-10T01:39:50.997Z,99.28
2023-05-10T01:41:56.937Z,98.23
2023-05-10T01:44:06.965Z,98.94
2023-05-10T01:46:17.399Z,99.08
2023-05-10T01:48:21.684Z,98.94
2023-05-10T01:50:31.261Z,98.84
2023-05-10T01:52:39.546Z,99.72
2023-05-10T01:54:45.578Z,99.63
2023-05-10T01:56:54.096Z,99.86
2023-05-10T01:58:56.378Z,100.00
2023-05-10T02:01:01.858Z,100.00
2023-05-10T02:03:07.854Z,100.00
2023-05-10T02:05:13.160Z,100.00
2023-05-10T02:07:15.674Z,100.00
2023-05-10T02:09:18.895Z,100.00
2023-05-10T02:11:22.108Z,100.00
2023-05-10T02:13:27.211Z,100.00
2023-05-10T02:15:30.755Z,100.00
2023-05-10T02:17:33.648Z,100.00
2023-05-10T02:19:37.549Z,100.00
2023-05-10T02:21:40.422Z,100.00
2023-05-10T02:23:43.791Z,100.00
2023-05-10T02:25:46.885Z,100.00
2023-05-10T02:27:49.877Z,100.00
2023-05-10T02:29:52.691Z,100.00
2023-05-10T02:31:55.947Z,100.00
2023-05-10T02:33:58.888Z,100.00
2023-05-10T02:36:02.930Z,100.00
2023-05-10T02:38:06.069Z,100.00
2023-05-10T02:40:09.468Z,100.00
2023-05-10T02:42:16.726Z,100.00
2023-05-10T02:44:23.730Z,100.00
2023-05-10T02:46:25.694Z,100.00
2023-05-10T02:48:27.399Z,100.00
2023-05-10T02:50:33.269Z,100.00
2023-05-10T02:52:45.254Z,100.00
2023-05-10T02:54:51.590Z,100.00
2023-05-10T02:56:58.665Z,100.00
2023-05-10T02:59:00.266Z,100.00
2023-05-10T03:01:01.896Z,100.00
2023-05-10T03:03:04.044Z,100.00
2023-05-10T03:05:06.070Z,100.00
2023-05-10T03:07:08.442Z,100.00
2023-05-10T03:09:12.005Z,100.00
2023-05-10T03:11:22.688Z,100.00
2023-05-10T03:13:40.623Z,100.00
2023-05-10T03:15:50.096Z,100.00
2023-05-10T03:18:03.917Z,100.00
2023-05-10T03:20:12.549Z,100.00
2023-05-10T03:22:23.509Z,100.00
2023-05-10T03:24:29.129Z,100.00
2023-05-10T03:26:33.785Z,100.00
2023-05-10T03:28:44.677Z,100.00
2023-05-10T03:30:47.217Z,100.00
2023-05-10T03:32:49.017Z,100.00
2023-05-10T03:34:52.540Z,100.00
2023-05-10T03:36:54.634Z,100.00
2023-05-10T03:38:56.266Z,100.00
2023-05-10T03:40:58.219Z,100.00
2023-05-10T03:43:00.406Z,100.00
2023-05-10T03:45:02.014Z,100.00
2023-05-10T03:47:04.004Z,100.00
2023-05-10T03:49:06.455Z,100.00
2023-05-10T03:51:08.128Z,100.00
2023-05-10T03:53:09.830Z,100.00
2023-05-10T03:55:11.997Z,100.00
2023-05-10T03:57:13.908Z,100.00
2023-05-10T03:59:16.261Z,100.00
2023-05-10T04:01:17.753Z,100.00
2023-05-10T04:03:19.379Z,100.00
2023-05-10T04:05:21.246Z,100.00
2023-05-10T04:07:22.887Z,100.00
2023-05-10T04:09:25.002Z,100.00
2023-05-10T04:11:26.804Z,100.00
2023-05-10T04:13:28.549Z,100.00
2023-05-10T04:15:30.044Z,100.00
2023-05-10T04:17:32.506Z,100.00
2023-05-10T04:19:34.777Z,100.00
2023-05-10T04:21:37.563Z,100.00
2023-05-10T04:23:39.586Z,100.00
2023-05-10T04:25:41.806Z,100.00
2023-05-10T04:27:43.630Z,100.00
2023-05-10T04:29:45.502Z,100.00
2023-05-10T04:31:46.986Z,100.00
2023-05-10T04:33:48.532Z,100.00
2023-05-10T04:35:50.057Z,100.00
2023-05-10T04:37:52.597Z,100.00
2023-05-10T04:39:54.778Z,100.00
2023-05-10T04:41:56.539Z,100.00
2023-05-10T04:43:58.078Z,100.00
2023-05-10T04:45:59.767Z,100.00
2023-05-10T04:48:01.844Z,100.00
2023-05-10T04:50:07.275Z,100.00
2023-05-10T04:52:09.321Z,100.00
2023-05-10T04:54:11.294Z,100.00
2023-05-10T04:56:13.136Z,100.00
2023-05-10T04:58:14.868Z,100.00
2023-05-10T05:00:17.233Z,100.00
2023-05-10T05:02:19.154Z,100.00
2023-05-10T05:04:20.692Z,100.00
2023-05-10T05:06:22.302Z,100.00
2023-05-10T05:08:24.846Z,100.00
2023-05-10T05:10:26.340Z,100.00
2023-05-10T05:12:27.811Z,100.00
2023-05-10T05:14:29.601Z,100.00
2023-05-10T05:16:32.623Z,100.00
2023-05-10T05:18:34.390Z,100.00
2023-05-10T05:20:36.150Z,100.00
2023-05-10T05:22:38.305Z,100.00
2023-05-10T05:24:39.828Z,100.00
2023-05-10T05:26:41.519Z,100.00
2023-05-10T05:28:43.036Z,100.00
2023-05-10T05:30:45.355Z,100.00
2023-05-10T05:32:48.245Z,100.00
2023-05-10T05:34:49.923Z,100.00
2023-05-10T05:36:51.430Z,100.00
2023-05-10T05:38:53.076Z,100.00
2023-05-10T05:40:54.876Z,100.00
2023-05-10T05:42:56.353Z,100.00
2023-05-10T05:44:58.383Z,100.00
2023-05-10T05:46:59.969Z,100.00
2023-05-10T05:49:01.457Z,100.00
2023-05-10T05:51:03.429Z,100.00
2023-05-10T05:53:06.999Z,100.00
2023-05-10T05:55:09.097Z,100.00
2023-05-10T05:57:10.983Z,100.00
2023-05-10T05:59:12.724Z,100.00
2023-05-10T06:01:14.420Z,100.00
2023-05-10T06:03:16.529Z,100.00
2023-05-10T06:05:18.633Z,100.00
2023-05-10T06:07:20.257Z,100.00
2023-05-10T06:09:22.148Z,100.00
2023-05-10T06:11:23.867Z,100.00
2023-05-10T06:13:25.549Z,100.00
2023-05-10T06:15:28.103Z,100.00
2023-05-10T06:17:29.737Z,100.00
2023-05-10T06:19:31.979Z,100.00
2023-05-10T06:21:33.531Z,100.00
2023-05-10T06:23:35.292Z,99.67
2023-05-10T06:25:36.837Z,100.00
2023-05-10T06:27:38.365Z,100.00
2023-05-10T06:29:40.253Z,100.00
2023-05-10T06:31:41.930Z,100.00
2023-05-10T06:33:43.736Z,100.00
2023-05-10T06:35:45.483Z,99.95
2023-05-10T06:37:47.703Z,99.19
2023-05-10T06:39:49.723Z,99.28
2023-05-10T06:41:51.441Z,98.34
2023-05-10T06:43:54.857Z,98.55
2023-05-10T06:45:56.762Z,98.54
2023-05-10T06:47:58.367Z,96.83
2023-05-10T06:50:00.176Z,97.70
2023-05-10T06:52:02.126Z,99.14
2023-05-10T06:54:04.300Z,99.80
2023-05-10T06:56:06.094Z,100.00
2023-05-10T06:58:07.791Z,99.48
2023-05-10T07:00:10.701Z,99.83
2023-05-10T07:02:12.552Z,100.00
2023-05-10T07:04:14.717Z,100.00
2023-05-10T07:06:29.480Z,100.00
2023-05-10T07:08:35.370Z,99.53
2023-05-10T07:10:37.179Z,100.00
2023-05-10T07:12:39.448Z,100.00
2023-05-10T07:14:41.145Z,100.00
2023-05-10T07:16:43.060Z,100.00
2023-05-10T07:18:44.856Z,100.00
2023-05-10T07:20:46.496Z,99.07
2023-05-10T07:22:48.033Z,99.51
2023-05-10T07:24:49.874Z,98.61
2023-05-10T07:26:51.404Z,98.64
2023-05-10T07:28:53.043Z,97.40
2023-05-10T07:30:54.680Z,98.38
2023-05-10T07:32:56.402Z,99.16
2023-05-10T07:34:57.997Z,99.82
2023-05-10T07:37:00.026Z,99.71
2023-05-10T07:39:01.782Z,99.54
2023-05-10T07:41:03.526Z,98.83
2023-05-10T07:43:05.043Z,99.61
2023-05-10T07:45:07.370Z,100.00
2023-05-10T07:47:09.166Z,100.00
2023-05-10T07:49:10.970Z,99.86
2023-05-10T07:51:12.918Z,99.09
2023-05-10T07:53:14.517Z,98.09
2023-05-10T07:55:16.986Z,97.95
2023-05-10T07:57:19.258Z,99.26
2023-05-10T07:59:21.015Z,99.33
2023-05-10T08:01:23.552Z,99.04
2023-05-10T08:03:25.754Z,97.42
2023-05-10T08:05:27.513Z,96.52
2023-05-10T08:07:29.125Z,96.10
2023-05-10T08:09:30.637Z,95.24
2023-05-10T08:11:33.716Z,95.84
2023-05-10T08:13:36.535Z,95.58
2023-05-10T08:15:38.120Z,95.34
2023-05-10T08:17:40.289Z,95.08
2023-05-10T08:19:41.914Z,95.55
2023-05-10T08:21:43.484Z,94.99
2023-05-10T08:23:45.251Z,94.17
2023-05-10T08:25:46.936Z,94.08
2023-05-10T08:27:48.455Z,94.23
2023-05-10T08:29:50.701Z,94.43
2023-05-10T08:31:52.355Z,94.09
2023-05-10T08:33:53.958Z,93.00
2023-05-10T08:35:55.537Z,93.21
2023-05-10T08:37:57.047Z,96.49
2023-05-10T08:39:58.675Z,94.50
2023-05-10T08:42:02.494Z,93.49
2023-05-10T08:44:06.297Z,94.31
2023-05-10T08:46:10.024Z,93.34
2023-05-10T08:48:12.963Z,92.91
2023-05-10T08:50:17.171Z,93.95
2023-05-10T08:52:19.555Z,93.88
2023-05-10T08:54:22.681Z,93.61
2023-05-10T08:56:25.066Z,92.16
2023-05-10T08:58:26.651Z,92.16
2023-05-10T09:00:29.524Z,92.61
2023-05-10T09:02:31.483Z,91.67
2023-05-10T09:04:33.980Z,92.10
2023-05-10T09:06:36.254Z,89.96
2023-05-10T09:08:38.389Z,89.75
2023-05-10T09:10:41.169Z,90.52
2023-05-10T09:12:45.200Z,90.02
2023-05-10T09:14:47.387Z,90.45
2023-05-10T09:16:48.973Z,89.92
2023-05-10T09:18:50.831Z,89.29
2023-05-10T09:20:52.790Z,88.69
2023-05-10T09:22:54.369Z,88.73
2023-05-10T09:25:13.336Z,85.64
2023-05-10T09:27:14.932Z,86.79
2023-05-10T09:29:17.850Z,87.31
2023-05-10T09:31:21.258Z,89.33
2023-05-10T09:33:23.233Z,90.18
2023-05-10T09:35:29.700Z,91.10
2023-05-10T09:37:31.621Z,88.11
2023-05-10T09:39:35.353Z,89.02
2023-05-10T09:41:37.861Z,88.93
2023-05-10T09:43:39.432Z,88.10
2023-05-10T09:45:42.222Z,88.52
2023-05-10T09:47:43.926Z,87.02
2023-05-10T09:49:51.013Z,85.58
2023-05-10T09:52:02.384Z,86.66
2023-05-10T09:54:17.828Z,86.65
2023-05-10T09:56:35.039Z,86.01
2023-05-10T09:58:39.085Z,86.76
2023-05-10T10:00:42.628Z,85.55
2023-05-10T10:02:46.039Z,86.62
2023-05-10T10:04:50.847Z,86.92
2023-05-10T10:07:01.363Z,86.18
2023-05-10T10:09:03.017Z,85.82
2023-05-10T10:11:05.176Z,81.96
2023-05-10T10:13:07.265Z,81.68
2023-05-10T10:15:09.973Z,82.48
2023-05-10T10:17:12.857Z,79.98
2023-05-10T10:19:15.704Z,80.52
2023-05-10T10:21:17.838Z,80.51
2023-05-10T10:23:19.478Z,81.80
2023-05-10T10:25:24.995Z,80.19
2023-05-10T10:27:42.329Z,79.46
2023-05-10T10:29:58.960Z,80.70
2023-05-10T10:32:31.354Z,80.00
2023-05-10T10:34:33.318Z,81.04
2023-05-10T10:36:46.646Z,81.33
2023-05-10T10:38:48.115Z,81.98
2023-05-10T10:41:02.457Z,80.54
2023-05-10T10:43:27.060Z,83.91
2023-05-10T10:45:28.689Z,82.01
2023-05-10T10:47:33.878Z,80.16
2023-05-10T10:49:44.767Z,81.22
2023-05-10T10:52:19.244Z,80.77
2023-05-10T10:54:29.319Z,79.80
2023-05-10T10:56:30.999Z,79.09
2023-05-10T10:58:35.299Z,78.86
2023-05-10T11:00:38.821Z,76.25
2023-05-10T11:02:43.407Z,74.29
2023-05-10T11:04:47.770Z,72.57
2023-05-10T11:06:49.436Z,74.93
2023-05-10T11:08:53.637Z,72.79
2023-05-10T11:11:00.831Z,72.42
2023-05-10T11:13:09.405Z,72.08
2023-05-10T11:15:11.027Z,71.95
2023-05-10T11:17:30.377Z,72.87
2023-05-10T11:19:32.312Z,75.32
2023-05-10T11:21:35.111Z,73.84
2023-05-10T11:23:51.552Z,75.19
2023-05-10T11:25:53.059Z,75.61
2023-05-10T11:27:54.568Z,76.49
2023-05-10T11:29:56.367Z,79.60
2023-05-10T11:32:00.143Z,80.39
2023-05-10T11:34:06.191Z,82.50
2023-05-10T11:36:12.088Z,78.99
2023-05-10T11:38:14.385Z,80.36
2023-05-10T11:40:17.353Z,77.41
2023-05-10T11:42:19.250Z,77.58
2023-05-10T11:44:20.976Z,76.34
2023-05-10T11:46:24.895Z,76.52
2023-05-10T11:48:26.466Z,75.97
2023-05-10T11:50:28.268Z,76.21
2023-05-10T11:52:37.594Z,74.69
2023-05-10T11:54:46.227Z,75.17
2023-05-10T11:56:47.788Z,75.28
2023-05-10T11:58:58.338Z,74.96
2023-05-10T12:01:00.905Z,73.63
2023-05-10T12:03:03.340Z,72.20
2023-05-10T12:05:07.096Z,73.41
2023-05-10T12:07:08.906Z,73.47
2023-05-10T12:09:10.712Z,71.31
2023-05-10T12:11:13.722Z,70.95
2023-05-10T12:13:16.480Z,69.32
2023-05-10T12:15:22.214Z,69.83
2023-05-10T12:17:28.508Z,67.06
2023-05-10T12:19:38.073Z,66.35
2023-05-10T12:21:39.980Z,63.92
2023-05-10T12:23:42.457Z,66.68
2023-05-10T12:25:44.499Z,69.39
2023-05-10T12:27:57.144Z,69.17
2023-05-10T12:30:01.188Z,68.86
2023-05-10T12:32:03.752Z,71.01
2023-05-10T12:34:05.462Z,71.29
2023-05-10T12:36:07.769Z,73.16
2023-05-10T12:38:29.872Z,74.25
2023-05-10T12:40:31.890Z,72.51
2023-05-10T12:42:33.983Z,72.92
2023-05-10T12:44:35.809Z,72.84
2023-05-10T12:46:37.615Z,73.70
2023-05-10T12:48:40.898Z,72.72
2023-05-10T12:50:42.608Z,73.77
2023-05-10T12:52:44.198Z,74.48
2023-05-10T12:54:45.830Z,76.53
2023-05-10T12:56:47.342Z,77.60
2023-05-10T12:58:49.183Z,76.99
2023-05-10T13:00:52.656Z,78.05
2023-05-10T13:02:54.941Z,76.33
2023-05-10T13:04:56.571Z,77.82
2023-05-10T13:06:59.892Z,74.85
2023-05-10T13:09:01.585Z,71.60
2023-05-10T13:11:03.817Z,71.95
2023-05-10T13:13:06.167Z,72.54
2023-05-10T13:15:08.573Z,70.94
2023-05-10T13:17:10.203Z,68.62
2023-05-10T13:19:12.665Z,71.96
2023-05-10T13:21:14.483Z,71.99
2023-05-10T13:23:16.139Z,71.05
2023-05-10T13:25:18.166Z,69.96
2023-05-10T13:27:19.821Z,70.60
2023-05-10T13:29:23.402Z,69.53
2023-05-10T13:31:25.011Z,68.13
2023-05-10T13:33:27.573Z,66.22
2023-05-10T13:35:29.121Z,65.32
2023-05-10T13:37:32.182Z,63.13
2023-05-10T13:39:35.682Z,62.40
2023-05-10T13:41:37.955Z,60.37
2023-05-10T13:43:39.558Z,58.37
2023-05-10T13:45:41.132Z,58.82
2023-05-10T13:47:42.624Z,59.72
2023-05-10T13:49:44.347Z,60.37
2023-05-10T13:51:46.071Z,62.14
2023-05-10T13:53:48.094Z,61.70
2023-05-10T13:55:50.000Z,58.04
2023-05-10T13:57:52.083Z,58.62
2023-05-10T13:59:55.878Z,58.71
2023-05-10T14:02:00.963Z,56.87
2023-05-10T14:04:03.235Z,58.02
2023-05-10T14:06:04.876Z,56.03
2023-05-10T14:08:06.723Z,55.27
2023-05-10T14:10:08.623Z,56.32
2023-05-10T14:12:10.539Z,55.56
2023-05-10T14:14:13.547Z,54.07
2023-05-10T14:16:16.149Z,57.78
2023-05-10T14:18:18.312Z,56.84
2023-05-10T14:20:20.076Z,55.82
2023-05-10T14:22:21.915Z,56.09
2023-05-10T14:24:23.866Z,55.33
2023-05-10T14:26:26.309Z,54.26
2023-05-10T14:28:27.967Z,55.42
2023-05-10T14:30:29.617Z,55.27
2023-05-10T14:32:33.234Z,55.48
2023-05-10T14:34:35.146Z,55.75
2023-05-10T14:36:36.987Z,54.76
2023-05-10T14:38:38.550Z,55.40
2023-05-10T14:40:40.434Z,55.51
2023-05-10T14:42:43.455Z,58.48
2023-05-10T14:44:44.985Z,56.66
2023-05-10T14:46:46.498Z,57.45
2023-05-10T14:48:48.151Z,58.28
2023-05-10T14:50:51.180Z,55.76
2023-05-10T14:52:52.760Z,55.39
2023-05-10T14:54:54.853Z,56.25
2023-05-10T14:56:56.412Z,54.98
2023-05-10T14:58:57.999Z,57.14
2023-05-10T15:01:00.569Z,53.42
2023-05-10T15:03:03.572Z,54.01
2023-05-10T15:05:05.772Z,57.17
2023-05-10T15:07:07.715Z,56.97
2023-05-10T15:09:09.843Z,54.44
2023-05-10T15:11:11.406Z,60.38
2023-05-10T15:13:12.973Z,63.18
2023-05-10T15:15:14.846Z,63.03
2023-05-10T15:17:17.150Z,62.11
2023-05-10T15:19:21.260Z,62.17
2023-05-10T15:21:22.792Z,61.10
2023-05-10T15:23:24.384Z,61.83
2023-05-10T15:25:26.143Z,63.24
2023-05-10T15:27:27.788Z,64.54
2023-05-10T15:29:30.545Z,63.22
2023-05-10T15:31:32.088Z,62.32
2023-05-10T15:33:33.704Z,62.37
2023-05-10T15:35:36.702Z,61.44
2023-05-10T15:37:39.132Z,60.42
2023-05-10T15:39:40.968Z,60.83
2023-05-10T15:41:42.818Z,60.98
2023-05-10T15:43:44.547Z,60.16
2023-05-10T15:45:46.396Z,59.80
2023-05-10T15:47:48.924Z,59.75
2023-05-10T15:49:50.689Z,59.50
2023-05-10T15:51:52.211Z,59.41
2023-05-10T15:54:05.954Z,59.49
2023-05-10T15:56:09.162Z,60.01
2023-05-10T15:58:11.567Z,58.89
2023-05-10T16:00:14.227Z,58.40
2023-05-10T16:02:15.985Z,57.75
2023-05-10T16:04:18.306Z,57.87
2023-05-10T16:06:20.061Z,57.20
2023-05-10T16:08:21.692Z,57.68
2023-05-10T16:10:23.397Z,57.22
2023-05-10T16:12:25.005Z,56.97
2023-05-10T16:14:26.720Z,56.58
2023-05-10T16:16:28.328Z,57.17
2023-05-10T16:18:29.950Z,56.95
2023-05-10T16:20:32.993Z,57.19
2023-05-10T16:22:35.468Z,57.20
2023-05-10T16:24:36.979Z,57.15
2023-05-10T16:26:40.843Z,57.28
2023-05-10T16:28:42.846Z,57.68
2023-05-10T16:30:44.486Z,57.17
2023-05-10T16:32:46.105Z,56.88
2023-05-10T16:34:47.979Z,56.59
2023-05-10T16:36:49.919Z,57.73
2023-05-10T16:38:52.156Z,57.71
2023-05-10T16:40:54.228Z,57.57
2023-05-10T16:42:55.728Z,58.24
2023-05-10T16:44:57.357Z,57.24
2023-05-10T16:46:59.186Z,56.90
2023-05-10T16:49:01.377Z,54.93
2023-05-10T16:51:04.468Z,59.22
2023-05-10T16:53:06.593Z,59.09
2023-05-10T16:55:08.626Z,60.14
2023-05-10T16:57:10.638Z,54.96
2023-05-10T16:59:12.153Z,55.70
2023-05-10T17:01:13.795Z,56.17
2023-05-10T17:03:15.927Z,55.83
2023-05-10T17:05:18.109Z,58.19
2023-05-10T17:07:20.099Z,57.46
2023-05-10T17:09:21.931Z,56.13
2023-05-10T17:11:23.500Z,60.00
2023-05-10T17:13:24.984Z,58.34
2023-05-10T17:15:26.794Z,57.20
2023-05-10T17:17:28.682Z,57.30
2023-05-10T17:19:30.636Z,56.73
2023-05-10T17:21:32.388Z,57.86
2023-05-10T17:23:34.340Z,57.56
2023-05-10T17:25:36.620Z,58.91
2023-05-10T17:27:38.363Z,58.72
2023-05-10T17:29:40.032Z,58.55
2023-05-10T17:31:42.247Z,61.51
2023-05-10T17:33:44.077Z,60.84
2023-05-10T17:35:46.723Z,61.41
2023-05-10T17:37:48.764Z,60.85
2023-05-10T17:39:50.604Z,63.32
2023-05-10T17:41:52.217Z,63.53
2023-05-10T17:43:54.014Z,63.36
2023-05-10T17:45:55.587Z,62.30
2023-05-10T17:47:57.401Z,62.97
2023-05-10T17:49:59.217Z,64.42
2023-05-10T17:52:00.788Z,64.56
2023-05-10T17:54:02.568Z,65.28
2023-05-10T17:56:04.315Z,64.35
2023-05-10T17:58:05.914Z,67.02
2023-05-10T18:00:09.101Z,64.99
2023-05-10T18:02:10.677Z,67.42
2023-05-10T18:04:12.193Z,68.04
2023-05-10T18:06:14.109Z,68.49
2023-05-10T18:08:15.936Z,69.95
2023-05-10T18:10:17.425Z,71.21
2023-05-10T18:12:19.211Z,71.03
2023-05-10T18:14:35.895Z,69.97
2023-05-10T18:16:43.055Z,69.37
2023-05-10T18:18:44.943Z,70.32
2023-05-10T18:20:46.786Z,71.89
2023-05-10T18:22:48.364Z,70.94
2023-05-10T18:24:49.917Z,72.80
2023-05-10T18:26:51.986Z,74.96
2023-05-10T18:28:53.448Z,75.70
2023-05-10T18:30:55.217Z,76.48
2023-05-10T18:32:57.943Z,77.72
2023-05-10T18:34:59.593Z,77.96
2023-05-10T18:37:02.362Z,78.08
2023-05-10T18:39:05.504Z,77.42
2023-05-10T18:41:07.656Z,78.36
2023-05-10T18:43:09.292Z,77.58
2023-05-10T18:45:11.570Z,77.50
2023-05-10T18:47:13.267Z,78.36
2023-05-10T18:49:14.818Z,78.29
2023-05-10T18:51:16.637Z,78.05
2023-05-10T18:53:18.397Z,78.05
2023-05-10T18:55:20.167Z,77.49
2023-05-10T18:57:22.101Z,77.38
2023-05-10T18:59:23.707Z,78.22
2023-05-10T19:01:25.377Z,78.94
2023-05-10T19:03:28.512Z,78.78
2023-05-10T19:05:31.481Z,77.94
2023-05-10T19:07:33.669Z,78.25
2023-05-10T19:09:35.552Z,77.51
2023-05-10T19:11:37.139Z,78.06
2023-05-10T19:13:38.652Z,78.65
2023-05-10T19:15:40.844Z,77.83
2023-05-10T19:17:43.313Z,77.87
2023-05-10T19:19:45.942Z,78.20
2023-05-10T19:21:48.093Z,79.09
2023-05-10T19:23:49.799Z,78.82
2023-05-10T19:25:51.842Z,78.69
2023-05-10T19:27:53.424Z,79.59
2023-05-10T19:29:55.742Z,80.13
2023-05-10T19:31:58.090Z,81.04
2023-05-10T19:34:00.857Z,81.31
2023-05-10T19:36:04.171Z,81.78
2023-05-10T19:38:05.872Z,81.49
2023-05-10T19:40:09.593Z,82.11
2023-05-10T19:42:11.586Z,82.97
2023-05-10T19:44:13.452Z,83.75
2023-05-10T19:46:17.117Z,82.75
2023-05-10T19:48:19.490Z,82.30
2023-05-10T19:50:21.015Z,81.37
2023-05-10T19:52:22.680Z,81.87
2023-05-10T19:54:24.331Z,81.58
2023-05-10T19:56:26.929Z,81.35
2023-05-10T19:58:29.776Z,80.80
2023-05-10T20:00:31.946Z,82.14
2023-05-10T20:02:33.794Z,81.86
2023-05-10T20:04:35.751Z,82.44
2023-05-10T20:06:37.335Z,83.13
2023-05-10T20:08:39.040Z,83.63
2023-05-10T20:10:40.530Z,85.17
2023-05-10T20:12:50.806Z,85.74
2023-05-10T20:14:52.361Z,85.89
2023-05-10T20:16:53.904Z,85.41
2023-05-10T20:18:55.563Z,86.10
2023-05-10T20:20:59.480Z,87.63
2023-05-10T20:23:01.324Z,87.82
2023-05-10T20:25:03.071Z,87.30
2023-05-10T20:27:04.806Z,87.20
2023-05-10T20:29:06.984Z,87.95
2023-05-10T20:31:10.170Z,87.76
2023-05-10T20:33:11.849Z,87.14
2023-05-10T20:35:13.577Z,87.07
2023-05-10T20:37:17.640Z,87.47
2023-05-10T20:39:19.141Z,87.61
2023-05-10T20:41:20.866Z,87.38
2023-05-10T20:43:22.419Z,87.70
2023-05-10T20:45:24.152Z,87.10
2023-05-10T20:47:26.353Z,87.83
2023-05-10T20:49:28.135Z,88.09
2023-05-10T20:51:30.610Z,87.54
2023-05-10T20:53:32.230Z,87.62
2023-05-10T20:55:33.793Z,87.44
2023-05-10T20:57:35.515Z,87.73
2023-05-10T20:59:37.257Z,88.02
2023-05-10T21:01:38.896Z,88.03
2023-05-10T21:03:41.047Z,88.38
2023-05-10T21:05:42.613Z,88.70
2023-05-10T21:07:44.155Z,89.38
2023-05-10T21:09:45.785Z,90.05
2023-05-10T21:11:47.334Z,88.86
2023-05-10T21:13:48.843Z,89.11
2023-05-10T21:15:50.812Z,90.18
2023-05-10T21:17:53.857Z,90.44
2023-05-10T21:19:55.703Z,90.04
2023-05-10T21:21:58.909Z,88.95
2023-05-10T21:24:00.605Z,88.36
2023-05-10T21:26:03.215Z,88.34
2023-05-10T21:28:05.288Z,88.63
2023-05-10T21:30:07.721Z,88.79
2023-05-10T21:32:09.526Z,88.21
2023-05-10T21:34:11.346Z,87.64
2023-05-10T21:36:13.180Z,87.73
2023-05-10T21:38:15.819Z,87.53
2023-05-10T21:40:17.865Z,87.83
2023-05-10T21:42:19.856Z,87.55
2023-05-10T21:44:27.659Z,87.12
2023-05-10T21:46:29.561Z,87.39
2023-05-10T21:48:31.187Z,87.73
2023-05-10T21:50:32.690Z,87.23
2023-05-10T21:52:34.216Z,87.04
2023-05-10T21:54:37.191Z,86.90
2023-05-10T21:56:38.729Z,86.94
2023-05-10T21:58:40.712Z,86.60
2023-05-10T22:00:42.313Z,86.70
2023-05-10T22:02:43.980Z,87.25
2023-05-10T22:04:45.775Z,87.25
2023-05-10T22:06:48.934Z,87.31
2023-05-10T22:08:51.014Z,87.79
2023-05-10T22:10:52.792Z,87.73
2023-05-10T22:12:54.382Z,87.42
2023-05-10T22:15:09.496Z,87.26
2023-05-10T22:17:12.038Z,88.34
2023-05-10T22:19:13.594Z,88.10
2023-05-10T22:21:15.184Z,87.76
2023-05-10T22:23:16.720Z,88.45
2023-05-10T22:25:18.509Z,88.54
2023-05-10T22:27:20.040Z,88.20
2023-05-10T22:29:22.513Z,86.86
2023-05-10T22:31:24.113Z,87.22
2023-05-10T22:33:25.641Z,88.15
2023-05-10T22:35:27.555Z,88.63
2023-05-10T22:37:29.108Z,89.13
2023-05-10T22:39:30.650Z,89.24
2023-05-10T22:41:33.266Z,89.33
2023-05-10T22:43:34.767Z,89.75
2023-05-10T22:45:36.366Z,88.71
2023-05-10T22:47:38.063Z,88.79
2023-05-10T22:49:39.594Z,89.15
2023-05-10T22:51:41.173Z,89.05
2023-05-10T22:53:43.344Z,89.22
2023-05-10T22:55:45.457Z,89.00
2023-05-10T22:57:47.299Z,88.76
2023-05-10T22:59:49.121Z,89.22
2023-05-10T23:01:50.991Z,88.99
2023-05-10T23:03:52.679Z,89.38
2023-05-10T23:05:54.282Z,89.26
2023-05-10T23:07:55.812Z,88.36
2023-05-10T23:09:57.333Z,87.88
2023-05-10T23:11:58.883Z,87.28
2023-05-10T23:14:00.446Z,87.82
2023-05-10T23:16:06.533Z,88.79
2023-05-10T23:18:09.508Z,89.22
2023-05-10T23:20:11.902Z,89.49
2023-05-10T23:22:13.871Z,89.07
2023-05-10T23:24:15.493Z,88.26
2023-05-10T23:26:17.033Z,88.14
2023-05-10T23:28:19.187Z,88.40
2023-05-10T23:30:20.931Z,89.12
2023-05-10T23:32:22.848Z,89.21
2023-05-10T23:34:24.521Z,88.86
2023-05-10T23:36:26.280Z,89.24
2023-05-10T23:38:28.011Z,89.47
2023-05-10T23:40:30.035Z,89.28
2023-05-10T23:42:32.696Z,89.22
2023-05-10T23:44:34.196Z,89.67
2023-05-10T23:46:36.015Z,90.20
2023-05-10T23:48:37.543Z,89.74
2023-05-10T23:50:44.364Z,89.07
2023-05-10T23:52:45.924Z,89.68
2023-05-10T23:54:47.509Z,89.38
2023-05-10T23:56:51.711Z,90.22
2023-05-10T23:58:53.209Z,90.41
